createdAt,value
2017-09-13T00:01:09.598Z,99.99
2017-09-13T00:02:19.514Z,99.99
2017-09-13T00:03:29.451Z,99.99
2017-09-13T00:04:39.074Z,99.99
2017-09-13T00:05:49.346Z,99.99
2017-09-13T00:06:59.608Z,99.99
2017-09-13T00:08:10.122Z,99.99
2017-09-13T00:09:20.381Z,99.99
2017-09-13T00:10:30.317Z,99.99
2017-09-13T00:11:40.580Z,99.99
2017-09-13T00:12:50.848Z,99.99
2017-09-13T00:14:03.110Z,99.99
2017-09-13T00:15:13.047Z,99.99
2017-09-13T00:16:23.314Z,99.99
2017-09-13T00:17:33.261Z,99.99
2017-09-13T00:18:43.215Z,99.99
2017-09-13T00:19:53.511Z,99.99
2017-09-13T00:21:03.774Z,99.99
2017-09-13T00:22:14.041Z,99.99
2017-09-13T00:23:24.302Z,99.99
2017-09-13T00:24:34.566Z,99.99
2017-09-13T00:25:44.833Z,99.99
2017-09-13T00:26:55.100Z,99.99
2017-09-13T00:28:05.358Z,99.99
2017-09-13T00:29:15.298Z,99.99
2017-09-13T00:30:24.918Z,99.99
2017-09-13T00:31:35.182Z,99.99
2017-09-13T00:32:45.140Z,99.99
2017-09-13T00:33:55.426Z,99.99
2017-09-13T00:35:05.046Z,99.99
2017-09-13T00:36:14.341Z,99.99
2017-09-13T00:37:24.606Z,99.99
2017-09-13T00:38:34.864Z,99.99
2017-09-13T00:39:45.127Z,99.99
2017-09-13T00:40:55.389Z,99.99
2017-09-13T00:42:05.645Z,99.99
2017-09-13T00:43:15.263Z,99.99
2017-09-13T00:44:24.562Z,99.99
2017-09-13T00:45:34.839Z,99.99
2017-09-13T00:46:45.108Z,99.99
2017-09-13T00:47:55.373Z,99.99
2017-09-13T00:49:05.639Z,99.99
2017-09-13T00:50:15.258Z,99.99
2017-09-13T00:51:25.519Z,99.99
2017-09-13T00:52:35.459Z,99.99
2017-09-13T00:53:45.741Z,99.99
2017-09-13T00:54:56.002Z,99.99
2017-09-13T00:56:05.942Z,99.99
2017-09-13T00:57:15.891Z,99.99
2017-09-13T00:58:26.152Z,99.99
2017-09-13T00:59:35.767Z,99.99
2017-09-13T01:00:46.027Z,99.99
2017-09-13T01:01:56.288Z,99.99
2017-09-13T01:03:06.550Z,99.99
2017-09-13T01:04:16.815Z,99.99
2017-09-13T01:05:27.072Z,99.99
2017-09-13T01:06:37.012Z,99.99
2017-09-13T01:07:47.295Z,99.99
2017-09-13T01:08:57.560Z,99.99
2017-09-13T01:10:07.822Z,99.99
2017-09-13T01:11:18.091Z,99.99
2017-09-13T01:12:27.714Z,99.99
2017-09-13T01:13:37.975Z,99.99
2017-09-13T01:14:48.245Z,99.99
2017-09-13T01:15:58.503Z,99.99
2017-09-13T01:17:08.446Z,99.99
2017-09-13T01:18:18.707Z,99.99
2017-09-13T01:19:28.652Z,99.99
2017-09-13T01:20:38.625Z,99.99
2017-09-13T01:21:48.884Z,99.99
2017-09-13T01:22:58.823Z,99.99
2017-09-13T01:24:08.758Z,99.99
2017-09-13T01:25:19.010Z,99.99
2017-09-13T01:26:29.270Z,99.99
2017-09-13T01:27:39.214Z,99.99
2017-09-13T01:28:49.150Z,99.99
2017-09-13T01:29:59.421Z,99.99
2017-09-13T01:31:09.690Z,99.99
2017-09-13T01:32:19.955Z,99.99
2017-09-13T01:33:29.893Z,99.99
2017-09-13T01:34:39.514Z,99.99
2017-09-13T01:35:49.816Z,99.99
2017-09-13T01:37:00.078Z,99.99
2017-09-13T01:38:10.022Z,99.99
2017-09-13T01:39:20.281Z,99.99
2017-09-13T01:40:30.545Z,99.99
2017-09-13T01:41:40.834Z,99.99
2017-09-13T01:42:51.103Z,99.99
2017-09-13T01:44:01.365Z,99.99
2017-09-13T01:45:11.630Z,99.99
2017-09-13T01:46:21.569Z,99.99
2017-09-13T01:47:31.828Z,99.99
2017-09-13T01:48:42.089Z,99.99
2017-09-13T01:49:52.029Z,99.99
2017-09-13T01:51:02.303Z,99.99
2017-09-13T01:52:12.243Z,99.99
2017-09-13T01:53:22.184Z,99.99
2017-09-13T01:54:32.129Z,99.99
2017-09-13T01:55:42.391Z,99.99
2017-09-13T01:56:52.338Z,99.99
2017-09-13T01:58:02.275Z,99.99
2017-09-13T01:59:12.540Z,99.99
2017-09-13T02:00:22.804Z,99.99
2017-09-13T02:01:33.067Z,99.99
2017-09-13T02:02:43.339Z,99.99
2017-09-13T02:03:53.602Z,99.99
2017-09-13T02:05:03.536Z,99.99
2017-09-13T02:06:13.794Z,99.99
2017-09-13T02:07:23.412Z,99.99
2017-09-13T02:08:33.675Z,99.99
2017-09-13T02:09:43.291Z,99.99
2017-09-13T02:10:53.652Z,99.99
2017-09-13T02:12:03.593Z,99.99
2017-09-13T02:13:13.853Z,99.99
2017-09-13T02:14:23.797Z,99.99
2017-09-13T02:15:33.738Z,99.99
2017-09-13T02:16:43.685Z,99.99
2017-09-13T02:17:53.627Z,99.99
2017-09-13T02:19:03.913Z,99.99
2017-09-13T02:20:14.186Z,99.99
2017-09-13T02:21:23.808Z,99.99
2017-09-13T02:22:33.756Z,99.99
2017-09-13T02:23:44.017Z,99.99
2017-09-13T02:24:53.983Z,99.99
2017-09-13T02:26:04.246Z,99.99
2017-09-13T02:27:14.503Z,99.99
2017-09-13T02:28:24.762Z,99.99
2017-09-13T02:29:34.059Z,99.99
2017-09-13T02:30:44.319Z,99.99
2017-09-13T02:31:54.576Z,99.99
2017-09-13T02:33:04.854Z,99.99
2017-09-13T02:34:14.809Z,99.99
2017-09-13T02:35:25.113Z,99.99
2017-09-13T02:36:35.061Z,99.99
2017-09-13T02:37:45.318Z,99.99
2017-09-13T02:38:55.262Z,99.99
2017-09-13T02:40:05.212Z,99.99
2017-09-13T02:41:15.175Z,99.99
2017-09-13T02:42:25.437Z,99.99
2017-09-13T02:43:35.384Z,99.99
2017-09-13T02:44:45.645Z,99.99
2017-09-13T02:45:55.908Z,99.99
2017-09-13T02:47:05.852Z,99.99
2017-09-13T02:48:16.120Z,99.99
2017-09-13T02:49:26.106Z,99.99
2017-09-13T02:50:36.049Z,99.99
2017-09-13T02:51:45.983Z,99.99
2017-09-13T02:52:56.245Z,99.99
2017-09-13T02:54:06.514Z,99.99
2017-09-13T02:55:16.457Z,99.99
2017-09-13T02:56:26.720Z,99.99
2017-09-13T02:57:36.660Z,99.99
2017-09-13T02:58:46.286Z,99.99
2017-09-13T02:59:56.551Z,99.99
2017-09-13T03:01:06.814Z,99.99
2017-09-13T03:02:16.756Z,99.99
2017-09-13T03:03:26.703Z,99.99
2017-09-13T03:04:36.959Z,99.99
2017-09-13T03:05:46.909Z,99.99
2017-09-13T03:06:57.171Z,99.99
2017-09-13T03:08:07.431Z,99.99
2017-09-13T03:09:17.720Z,99.99
2017-09-13T03:10:27.989Z,99.99
2017-09-13T03:11:37.926Z,99.99
2017-09-13T03:12:47.867Z,99.99
2017-09-13T03:13:57.808Z,99.99
2017-09-13T03:15:08.070Z,99.99
2017-09-13T03:16:18.012Z,99.99
2017-09-13T03:17:28.277Z,99.99
2017-09-13T03:18:38.222Z,99.99
2017-09-13T03:19:48.159Z,99.99
2017-09-13T03:20:58.420Z,99.99
2017-09-13T03:22:08.692Z,99.99
2017-09-13T03:23:18.998Z,99.99
2017-09-13T03:24:29.251Z,99.99
2017-09-13T03:25:39.191Z,99.99
2017-09-13T03:26:49.454Z,99.99
2017-09-13T03:27:59.717Z,99.99
2017-09-13T03:29:09.971Z,99.99
2017-09-13T03:30:19.917Z,99.99
2017-09-13T03:31:29.865Z,99.99
2017-09-13T03:32:39.810Z,99.99
2017-09-13T03:33:49.105Z,99.99
2017-09-13T03:34:59.378Z,99.99
2017-09-13T03:36:09.643Z,99.99
2017-09-13T03:37:19.896Z,99.99
2017-09-13T03:38:29.841Z,99.99
2017-09-13T03:39:40.107Z,99.99
2017-09-13T03:40:50.372Z,99.99
2017-09-13T03:42:00.638Z,99.99
2017-09-13T03:43:10.259Z,99.99
2017-09-13T03:44:19.878Z,99.99
2017-09-13T03:45:30.139Z,99.99
2017-09-13T03:46:40.092Z,99.99
2017-09-13T03:47:50.034Z,99.99
2017-09-13T03:49:00.291Z,99.99
2017-09-13T03:50:10.549Z,99.99
2017-09-13T03:51:20.168Z,99.99
2017-09-13T03:52:30.429Z,99.99
2017-09-13T03:53:40.372Z,99.99
2017-09-13T03:54:50.629Z,99.99
2017-09-13T03:56:00.880Z,99.99
2017-09-13T03:57:11.147Z,99.99
2017-09-13T03:58:21.088Z,99.99
2017-09-13T03:59:31.351Z,99.99
2017-09-13T04:00:41.608Z,99.99
2017-09-13T04:01:51.549Z,99.99
2017-09-13T04:03:01.848Z,99.99
2017-09-13T04:04:12.151Z,99.99
2017-09-13T04:05:21.771Z,99.99
2017-09-13T04:06:31.708Z,99.99
2017-09-13T04:07:42.266Z,99.99
2017-09-13T04:08:51.882Z,99.99
2017-09-13T04:10:02.157Z,99.99
2017-09-13T04:11:12.413Z,99.99
2017-09-13T04:12:22.356Z,99.99
2017-09-13T04:13:34.397Z,99.99
2017-09-13T04:14:44.334Z,99.99
2017-09-13T04:15:54.274Z,99.99
2017-09-13T04:17:04.556Z,99.99
2017-09-13T04:18:14.826Z,99.99
2017-09-13T04:19:24.751Z,99.99
2017-09-13T04:20:35.011Z,99.99
2017-09-13T04:21:45.279Z,99.99
2017-09-13T04:22:55.228Z,99.99
2017-09-13T04:24:05.484Z,99.99
2017-09-13T04:25:15.995Z,99.99
2017-09-13T04:26:25.931Z,99.99
2017-09-13T04:27:36.196Z,99.99
2017-09-13T04:28:46.142Z,99.99
2017-09-13T04:29:56.398Z,99.99
2017-09-13T04:31:06.443Z,99.99
2017-09-13T04:32:16.061Z,99.99
2017-09-13T04:33:26.339Z,99.99
2017-09-13T04:34:36.284Z,99.99
2017-09-13T04:35:46.545Z,99.99
2017-09-13T04:36:58.588Z,99.99
2017-09-13T04:38:08.203Z,99.99
2017-09-13T04:39:17.861Z,99.99
2017-09-13T04:40:28.125Z,99.99
2017-09-13T04:41:38.067Z,99.99
2017-09-13T04:42:47.681Z,99.99
2017-09-13T04:43:57.622Z,99.99
2017-09-13T04:45:07.881Z,99.99
2017-09-13T04:46:17.502Z,99.99
2017-09-13T04:47:27.437Z,99.99
2017-09-13T04:48:37.378Z,99.99
2017-09-13T04:49:47.318Z,99.99
2017-09-13T04:50:57.588Z,99.99
2017-09-13T04:52:07.205Z,99.99
2017-09-13T04:53:17.148Z,99.99
2017-09-13T04:54:27.087Z,99.99
2017-09-13T04:55:37.026Z,99.99
2017-09-13T04:56:47.289Z,99.99
2017-09-13T04:57:57.238Z,99.99
2017-09-13T04:59:07.194Z,99.99
2017-09-13T05:00:17.465Z,99.99
2017-09-13T05:01:27.764Z,99.99
2017-09-13T05:02:38.024Z,99.99
2017-09-13T05:03:48.289Z,99.99
2017-09-13T05:04:57.916Z,99.99
2017-09-13T05:06:08.176Z,99.99
2017-09-13T05:07:18.113Z,99.99
2017-09-13T05:08:28.373Z,99.99
2017-09-13T05:09:38.637Z,99.99
2017-09-13T05:10:48.899Z,99.99
2017-09-13T05:11:59.157Z,99.99
2017-09-13T05:13:09.102Z,99.99
2017-09-13T05:14:19.364Z,99.99
2017-09-13T05:15:28.985Z,99.99
2017-09-13T05:16:39.252Z,99.99
2017-09-13T05:17:49.513Z,99.99
2017-09-13T05:18:59.454Z,99.99
2017-09-13T05:20:09.397Z,99.99
2017-09-13T05:21:19.336Z,99.99
2017-09-13T05:22:29.598Z,99.99
2017-09-13T05:23:39.866Z,99.99
2017-09-13T05:24:49.810Z,99.99
2017-09-13T05:25:59.746Z,99.99
2017-09-13T05:27:09.686Z,99.99
2017-09-13T05:28:19.940Z,99.99
2017-09-13T05:29:28.914Z,99.99
2017-09-13T05:30:39.203Z,99.99
2017-09-13T05:31:49.149Z,99.99
2017-09-13T05:32:59.418Z,99.99
2017-09-13T05:34:09.363Z,99.99
2017-09-13T05:35:18.990Z,99.99
2017-09-13T05:36:29.260Z,99.99
2017-09-13T05:37:39.518Z,99.99
2017-09-13T05:38:49.783Z,99.99
2017-09-13T05:40:00.044Z,99.99
2017-09-13T05:41:09.347Z,99.99
2017-09-13T05:42:19.608Z,99.99
2017-09-13T05:43:29.871Z,99.99
2017-09-13T05:44:39.491Z,99.99
2017-09-13T05:45:49.429Z,99.99
2017-09-13T05:46:59.377Z,99.99
2017-09-13T05:48:09.321Z,99.99
2017-09-13T05:49:19.583Z,99.99
2017-09-13T05:50:29.846Z,99.99
2017-09-13T05:51:39.472Z,99.99
2017-09-13T05:52:49.737Z,99.99
2017-09-13T05:53:59.682Z,99.99
2017-09-13T05:55:09.627Z,99.99
2017-09-13T05:56:19.884Z,99.99
2017-09-13T05:57:30.150Z,99.99
2017-09-13T05:58:40.098Z,99.99
2017-09-13T05:59:50.371Z,99.99
2017-09-13T06:01:00.311Z,99.99
2017-09-13T06:02:10.592Z,99.99
2017-09-13T06:03:20.939Z,99.99
2017-09-13T06:04:31.201Z,99.99
2017-09-13T06:05:41.462Z,99.99
2017-09-13T06:06:51.730Z,99.99
2017-09-13T06:08:01.670Z,99.99
2017-09-13T06:09:11.614Z,99.99
2017-09-13T06:10:21.882Z,99.99
2017-09-13T06:11:32.143Z,99.99
2017-09-13T06:12:41.763Z,99.99
2017-09-13T06:13:52.031Z,99.99
2017-09-13T06:15:02.294Z,99.99
2017-09-13T06:16:12.235Z,99.99
2017-09-13T06:17:22.497Z,99.99
2017-09-13T06:18:32.438Z,99.99
2017-09-13T06:19:42.703Z,99.99
2017-09-13T06:20:52.650Z,99.99
2017-09-13T06:22:02.915Z,99.99
2017-09-13T06:23:12.872Z,99.99
2017-09-13T06:24:22.828Z,99.99
2017-09-13T06:25:33.095Z,99.99
2017-09-13T06:26:43.045Z,99.99
2017-09-13T06:27:52.986Z,99.99
2017-09-13T06:29:02.927Z,99.99
2017-09-13T06:30:13.191Z,99.99
2017-09-13T06:31:23.138Z,99.99
2017-09-13T06:32:33.407Z,99.99
2017-09-13T06:33:43.345Z,99.99
2017-09-13T06:34:52.963Z,99.99
2017-09-13T06:36:02.582Z,99.99
2017-09-13T06:37:12.199Z,99.99
2017-09-13T06:38:21.821Z,99.99
2017-09-13T06:39:31.760Z,99.99
2017-09-13T06:40:42.031Z,99.99
2017-09-13T06:41:51.974Z,99.99
2017-09-13T06:43:01.601Z,99.99
2017-09-13T06:44:11.221Z,99.99
2017-09-13T06:45:21.164Z,99.99
2017-09-13T06:46:31.105Z,99.99
2017-09-13T06:47:41.048Z,99.99
2017-09-13T06:48:51.328Z,99.99
2017-09-13T06:50:01.375Z,99.99
2017-09-13T06:51:11.318Z,99.99
2017-09-13T06:52:21.573Z,99.99
2017-09-13T06:53:31.197Z,99.99
2017-09-13T06:54:41.460Z,99.99
2017-09-13T06:55:51.404Z,99.99
2017-09-13T06:57:01.672Z,99.99
2017-09-13T06:58:11.628Z,99.99
2017-09-13T06:59:21.890Z,99.99
2017-09-13T07:00:31.520Z,99.99
2017-09-13T07:01:41.786Z,99.99
2017-09-13T07:02:52.049Z,99.99
2017-09-13T07:04:02.337Z,99.99
2017-09-13T07:05:12.645Z,99.99
2017-09-13T07:06:22.592Z,99.99
2017-09-13T07:07:32.537Z,99.99
2017-09-13T07:08:42.806Z,99.99
2017-09-13T07:09:52.754Z,99.99
2017-09-13T07:11:03.022Z,99.99
2017-09-13T07:12:12.975Z,99.99
2017-09-13T07:13:23.248Z,99.99
2017-09-13T07:14:32.870Z,99.99
2017-09-13T07:15:42.818Z,99.99
2017-09-13T07:16:52.761Z,99.99
2017-09-13T07:18:02.704Z,99.99
2017-09-13T07:19:12.324Z,99.99
2017-09-13T07:20:22.266Z,99.99
2017-09-13T07:21:32.212Z,99.99
2017-09-13T07:22:42.169Z,99.99
2017-09-13T07:23:51.792Z,99.99
2017-09-13T07:25:01.744Z,99.99
2017-09-13T07:26:11.688Z,99.99
2017-09-13T07:27:21.321Z,99.99
2017-09-13T07:28:31.266Z,99.99
2017-09-13T07:29:41.552Z,99.99
2017-09-13T07:30:51.509Z,99.99
2017-09-13T07:32:01.779Z,99.99
2017-09-13T07:33:12.051Z,99.99
2017-09-13T07:34:22.003Z,99.99
2017-09-13T07:35:32.277Z,99.99
2017-09-13T07:36:42.591Z,99.99
2017-09-13T07:37:52.537Z,99.99
2017-09-13T07:39:02.158Z,99.99
2017-09-13T07:40:11.786Z,99.99
2017-09-13T07:41:21.733Z,99.99
2017-09-13T07:42:32.004Z,99.99
2017-09-13T07:43:41.955Z,99.99
2017-09-13T07:44:52.219Z,99.99
2017-09-13T07:46:02.493Z,99.99
2017-09-13T07:47:12.434Z,99.99
2017-09-13T07:48:22.704Z,99.99
2017-09-13T07:49:32.326Z,99.99
2017-09-13T07:50:42.611Z,99.99
2017-09-13T07:51:52.875Z,99.99
2017-09-13T07:53:02.828Z,99.99
2017-09-13T07:54:13.100Z,99.99
2017-09-13T07:55:22.723Z,99.99
2017-09-13T07:56:32.351Z,99.99
2017-09-13T07:57:42.290Z,99.99
2017-09-13T07:58:52.554Z,99.99
2017-09-13T08:00:02.829Z,99.99
2017-09-13T08:01:13.098Z,99.99
2017-09-13T08:02:22.721Z,99.99
2017-09-13T08:03:32.993Z,99.99
2017-09-13T08:04:43.282Z,99.99
2017-09-13T08:05:53.224Z,99.99
2017-09-13T08:07:02.852Z,99.99
2017-09-13T08:08:12.801Z,99.99
2017-09-13T08:09:23.361Z,99.99
2017-09-13T08:10:34.433Z,99.99
2017-09-13T08:11:44.707Z,99.99
2017-09-13T08:12:54.650Z,99.99
2017-09-13T08:14:04.915Z,99.99
2017-09-13T08:15:15.184Z,99.99
2017-09-13T08:16:25.133Z,99.99
2017-09-13T08:17:35.406Z,99.99
2017-09-13T08:18:45.358Z,99.99
2017-09-13T08:19:54.658Z,99.99
2017-09-13T08:21:04.643Z,99.99
2017-09-13T08:22:14.917Z,99.99
2017-09-13T08:23:24.858Z,99.99
2017-09-13T08:24:34.804Z,99.99
2017-09-13T08:25:45.075Z,99.99
2017-09-13T08:26:55.394Z,99.99
2017-09-13T08:28:05.660Z,99.99
2017-09-13T08:29:15.280Z,99.99
2017-09-13T08:30:25.229Z,99.99
2017-09-13T08:31:35.177Z,99.99
2017-09-13T08:32:44.798Z,99.99
2017-09-13T08:33:54.754Z,99.99
2017-09-13T08:35:04.706Z,99.99
2017-09-13T08:36:14.976Z,99.99
2017-09-13T08:37:25.244Z,99.99
2017-09-13T08:38:35.198Z,99.99
2017-09-13T08:39:45.204Z,99.9
2017-09-13T08:40:55.475Z,97.52
2017-09-13T08:42:05.744Z,96.56
2017-09-13T08:43:15.374Z,98.13
2017-09-13T08:44:25.330Z,98.85
2017-09-13T08:45:35.284Z,98.85
2017-09-13T08:46:44.586Z,98.85
2017-09-13T08:47:54.858Z,98.94
2017-09-13T08:49:05.131Z,98.37
2017-09-13T08:50:15.397Z,98.47
2017-09-13T08:51:25.341Z,98.28
2017-09-13T08:52:34.965Z,98.13
2017-09-13T08:53:45.232Z,97.85
2017-09-13T08:54:55.181Z,96.99
2017-09-13T08:56:04.809Z,96.13
2017-09-13T08:57:14.756Z,96.22
2017-09-13T08:58:24.385Z,96.8
2017-09-13T08:59:34.014Z,96.13
2017-09-13T09:00:44.292Z,94.79
2017-09-13T09:01:54.562Z,95.84
2017-09-13T09:03:04.835Z,96.51
2017-09-13T09:04:15.104Z,95.84
2017-09-13T09:05:25.056Z,94.84
2017-09-13T09:06:35.324Z,95.27
2017-09-13T09:07:45.272Z,94.89
2017-09-13T09:08:55.540Z,94.7
2017-09-13T09:10:05.497Z,93.98
2017-09-13T09:11:15.133Z,94.93
2017-09-13T09:12:25.085Z,94.31
2017-09-13T09:13:35.354Z,94.36
2017-09-13T09:14:45.302Z,93.31
2017-09-13T09:15:55.152Z,93.88
2017-09-13T09:17:05.110Z,92.45
2017-09-13T09:18:14.738Z,92.93
2017-09-13T09:19:24.682Z,93.6
2017-09-13T09:20:34.306Z,92.93
2017-09-13T09:21:44.251Z,92.35
2017-09-13T09:22:54.202Z,92.25
2017-09-13T09:24:04.150Z,92.16
2017-09-13T09:25:14.114Z,92.35
2017-09-13T09:26:24.073Z,92.35
2017-09-13T09:27:34.021Z,91.2
2017-09-13T09:28:43.976Z,91.11
2017-09-13T09:29:54.240Z,92.69
2017-09-13T09:31:04.509Z,93.65
2017-09-13T09:32:14.456Z,92.88
2017-09-13T09:33:23.759Z,93.21
2017-09-13T09:34:34.032Z,93.45
2017-09-13T09:35:44.299Z,93.31
2017-09-13T09:36:54.575Z,93.07
2017-09-13T09:38:04.844Z,91.59
2017-09-13T09:39:14.476Z,92.5
2017-09-13T09:40:23.787Z,93.45
2017-09-13T09:41:33.735Z,93.07
2017-09-13T09:42:44.013Z,93.31
2017-09-13T09:43:54.291Z,92.79
2017-09-13T09:45:04.560Z,93.31
2017-09-13T09:46:14.508Z,92.74
2017-09-13T09:47:23.816Z,93.5
2017-09-13T09:48:33.773Z,93.31
2017-09-13T09:49:44.037Z,93.12
2017-09-13T09:50:53.662Z,89.67
2017-09-13T09:52:03.931Z,90.34
2017-09-13T09:53:13.888Z,92.16
2017-09-13T09:54:23.841Z,91.68
2017-09-13T09:55:33.786Z,91.78
2017-09-13T09:56:43.734Z,92.07
2017-09-13T09:57:53.360Z,91.49
2017-09-13T09:59:03.317Z,91.97
2017-09-13T10:00:13.267Z,91.68
2017-09-13T10:01:23.537Z,91.97
2017-09-13T10:02:33.174Z,92.16
2017-09-13T10:03:42.807Z,91.11
2017-09-13T10:04:52.432Z,91.16
2017-09-13T10:06:02.705Z,90.48
2017-09-13T10:07:12.659Z,89.72
2017-09-13T10:08:22.604Z,89.62
2017-09-13T10:09:32.231Z,89.53
2017-09-13T10:10:42.545Z,89.72
2017-09-13T10:11:52.493Z,89.34
2017-09-13T10:13:02.459Z,89.81
2017-09-13T10:14:12.748Z,89.91
2017-09-13T10:15:22.719Z,89.62
2017-09-13T10:16:32.356Z,89.24
2017-09-13T10:17:42.319Z,88.95
2017-09-13T10:18:52.278Z,88.71
2017-09-13T10:20:02.565Z,88.43
2017-09-13T10:21:12.518Z,88.71
2017-09-13T10:22:22.797Z,88.04
2017-09-13T10:23:32.745Z,87.85
2017-09-13T10:24:43.017Z,88.23
2017-09-13T10:25:52.966Z,88.23
2017-09-13T10:27:03.241Z,87.95
2017-09-13T10:28:13.518Z,87.37
2017-09-13T10:29:23.787Z,87.56
2017-09-13T10:30:34.055Z,87.08
2017-09-13T10:31:44.327Z,86.51
2017-09-13T10:32:54.596Z,87.47
2017-09-13T10:34:04.548Z,87.43
2017-09-13T10:35:14.493Z,87.47
2017-09-13T10:36:24.122Z,87.95
2017-09-13T10:37:34.392Z,88.29
2017-09-13T10:38:44.363Z,88.43
2017-09-13T10:39:54.629Z,88.48
2017-09-13T10:41:04.253Z,88.09
2017-09-13T10:42:14.527Z,87.85
2017-09-13T10:43:24.154Z,88.62
2017-09-13T10:44:34.101Z,88.43
2017-09-13T10:45:44.370Z,88.38
2017-09-13T10:46:54.006Z,87.81
2017-09-13T10:48:03.950Z,87.81
2017-09-13T10:49:14.218Z,88.86
2017-09-13T10:50:23.842Z,89.24
2017-09-13T10:51:34.114Z,89.19
2017-09-13T10:52:44.382Z,89.76
2017-09-13T10:53:54.658Z,88.9
2017-09-13T10:55:04.617Z,88.71
2017-09-13T10:56:14.881Z,88.62
2017-09-13T10:57:24.509Z,88.28
2017-09-13T10:58:33.816Z,87.13
2017-09-13T10:59:44.082Z,87.9
2017-09-13T11:00:54.350Z,87.46
2017-09-13T11:02:04.624Z,87.17
2017-09-13T11:03:14.585Z,86.98
2017-09-13T11:04:24.550Z,86.21
2017-09-13T11:05:34.184Z,85.78
2017-09-13T11:06:44.130Z,84.72
2017-09-13T11:07:54.399Z,84.15
2017-09-13T11:09:04.673Z,84.15
2017-09-13T11:10:14.307Z,82.42
2017-09-13T11:11:23.937Z,82.62
2017-09-13T11:12:34.208Z,82.32
2017-09-13T11:13:44.476Z,83
2017-09-13T11:14:54.425Z,83.19
2017-09-13T11:16:04.056Z,83.52
2017-09-13T11:17:14.326Z,83.23
2017-09-13T11:18:23.953Z,82.52
2017-09-13T11:19:34.227Z,82.65
2017-09-13T11:20:44.501Z,82.23
2017-09-13T11:21:54.777Z,82.65
2017-09-13T11:23:05.046Z,82.23
2017-09-13T11:24:15.325Z,82.71
2017-09-13T11:25:25.599Z,82.52
2017-09-13T11:26:35.870Z,82.52
2017-09-13T11:27:46.138Z,82.42
2017-09-13T11:28:56.411Z,83.09
2017-09-13T11:30:06.363Z,82.81
2017-09-13T11:31:15.670Z,83.67
2017-09-13T11:32:25.618Z,82.42
2017-09-13T11:33:35.571Z,83.48
2017-09-13T11:34:45.517Z,83.09
2017-09-13T11:35:55.786Z,83.76
2017-09-13T11:37:05.415Z,82.14
2017-09-13T11:38:15.700Z,81.7
2017-09-13T11:39:25.652Z,82.18
2017-09-13T11:40:35.920Z,81.89
2017-09-13T11:41:45.879Z,80.64
2017-09-13T11:42:56.156Z,80.49
2017-09-13T11:44:06.101Z,79.21
2017-09-13T11:45:16.056Z,80.11
2017-09-13T11:46:26.325Z,79.28
2017-09-13T11:47:36.597Z,79.38
2017-09-13T11:48:46.880Z,78.65
2017-09-13T11:49:57.176Z,78.59
2017-09-13T11:51:07.465Z,78.5
2017-09-13T11:52:17.100Z,77.15
2017-09-13T11:53:27.050Z,76.81
2017-09-13T11:54:37.004Z,76.65
2017-09-13T11:55:47.274Z,76.31
2017-09-13T11:56:56.910Z,73.03
2017-09-13T11:58:06.545Z,74.09
2017-09-13T11:59:16.501Z,73.46
2017-09-13T12:00:25.495Z,72.97
2017-09-13T12:01:35.448Z,74.16
2017-09-13T12:02:45.408Z,73.39
2017-09-13T12:03:55.050Z,71.81
2017-09-13T12:05:05.005Z,71.24
2017-09-13T12:06:14.641Z,69.79
2017-09-13T12:07:24.592Z,71.11
2017-09-13T12:08:34.548Z,71.62
2017-09-13T12:09:44.852Z,70.7
2017-09-13T12:10:54.842Z,69.79
2017-09-13T12:12:05.113Z,71.43
2017-09-13T12:13:15.071Z,71.53
2017-09-13T12:14:25.020Z,69.31
2017-09-13T12:15:34.971Z,70.05
2017-09-13T12:16:44.940Z,70.82
2017-09-13T12:17:54.895Z,70.86
2017-09-13T12:19:04.525Z,69.6
2017-09-13T12:20:14.800Z,69.38
2017-09-13T12:21:24.142Z,70.43
2017-09-13T12:22:33.779Z,70.11
2017-09-13T12:23:43.729Z,70.21
2017-09-13T12:24:53.688Z,70.37
2017-09-13T12:26:03.960Z,70.37
2017-09-13T12:27:13.919Z,71.19
2017-09-13T12:28:24.193Z,71.19
2017-09-13T12:29:33.826Z,71.77
2017-09-13T12:30:44.128Z,71.93
2017-09-13T12:31:54.090Z,72.16
2017-09-13T12:33:04.045Z,72.99
2017-09-13T12:34:14.018Z,72.99
2017-09-13T12:35:23.646Z,73.08
2017-09-13T12:36:33.917Z,72.02
2017-09-13T12:37:44.187Z,71.83
2017-09-13T12:38:54.148Z,72.79
2017-09-13T12:40:04.447Z,72.99
2017-09-13T12:41:14.724Z,73.94
2017-09-13T12:42:24.684Z,73.08
2017-09-13T12:43:34.636Z,74.08
2017-09-13T12:44:44.264Z,72.16
2017-09-13T12:45:54.545Z,72.64
2017-09-13T12:47:04.823Z,71.58
2017-09-13T12:48:14.448Z,72.48
2017-09-13T12:49:24.077Z,71.61
2017-09-13T12:50:33.708Z,70.3
2017-09-13T12:51:43.663Z,70.15
2017-09-13T12:52:53.612Z,69.67
2017-09-13T12:54:03.562Z,68.74
2017-09-13T12:55:13.835Z,67.42
2017-09-13T12:56:24.109Z,66.01
2017-09-13T12:57:34.394Z,65.08
2017-09-13T12:58:44.356Z,64.56
2017-09-13T12:59:54.630Z,61.8
2017-09-13T13:01:04.917Z,60.76
2017-09-13T13:02:15.196Z,60.89
2017-09-13T13:03:25.152Z,61.27
2017-09-13T13:04:35.433Z,59.28
2017-09-13T13:05:45.068Z,59.31
2017-09-13T13:06:55.354Z,57.95
2017-09-13T13:08:05.026Z,58.5
2017-09-13T13:09:14.667Z,59.83
2017-09-13T13:10:24.625Z,59.92
2017-09-13T13:11:34.578Z,60.11
2017-09-13T13:12:44.853Z,59.15
2017-09-13T13:13:54.173Z,58.37
2017-09-13T13:15:04.454Z,57.87
2017-09-13T13:16:14.734Z,58.73
2017-09-13T13:17:25.013Z,59.28
2017-09-13T13:18:34.969Z,58.15
2017-09-13T13:19:45.248Z,59.51
2017-09-13T13:20:54.881Z,59.22
2017-09-13T13:22:05.155Z,58.42
2017-09-13T13:23:15.154Z,59.48
2017-09-13T13:24:25.120Z,58.77
2017-09-13T13:25:34.758Z,58.84
2017-09-13T13:26:44.428Z,59.13
2017-09-13T13:27:54.705Z,60.74
2017-09-13T13:29:04.656Z,61.19
2017-09-13T13:30:14.289Z,61.19
2017-09-13T13:31:24.565Z,61.19
2017-09-13T13:32:34.535Z,61.45
2017-09-13T13:33:44.173Z,61.45
2017-09-13T13:34:54.454Z,62.51
2017-09-13T13:36:04.728Z,62.87
2017-09-13T13:37:14.686Z,63.44
2017-09-13T13:38:24.639Z,63.34
2017-09-13T13:39:34.915Z,63.34
2017-09-13T13:40:45.191Z,63.73
2017-09-13T13:41:55.141Z,64.76
2017-09-13T13:43:05.448Z,65.14
2017-09-13T13:44:15.727Z,64.66
2017-09-13T13:45:25.358Z,64.37
2017-09-13T13:46:34.992Z,64.76
2017-09-13T13:47:44.943Z,64.95
2017-09-13T13:48:55.218Z,64.86
2017-09-13T13:50:05.497Z,65.24
2017-09-13T13:51:15.771Z,64.95
2017-09-13T13:52:25.728Z,64.56
2017-09-13T13:53:35.036Z,64.82
2017-09-13T13:54:44.992Z,65.2
2017-09-13T13:55:54.942Z,65.5
2017-09-13T13:57:04.902Z,64.98
2017-09-13T13:58:14.859Z,65.37
2017-09-13T13:59:24.814Z,65.17
2017-09-13T14:00:34.765Z,65.94
2017-09-13T14:01:44.721Z,66.52
2017-09-13T14:02:54.990Z,67.48
2017-09-13T14:04:05.262Z,67.68
2017-09-13T14:05:14.894Z,68.6
2017-09-13T14:06:24.849Z,68.6
2017-09-13T14:07:35.142Z,67.35
2017-09-13T14:08:45.093Z,67.74
2017-09-13T14:09:55.045Z,68.02
2017-09-13T14:11:05.318Z,67.64
2017-09-13T14:12:15.273Z,68.12
2017-09-13T14:13:25.224Z,68.6
2017-09-13T14:14:35.182Z,69.08
2017-09-13T14:15:45.451Z,68.6
2017-09-13T14:16:55.076Z,68.28
2017-09-13T14:18:04.704Z,68.66
2017-09-13T14:19:14.667Z,68.95
2017-09-13T14:20:24.328Z,69.34
2017-09-13T14:21:34.597Z,69.11
2017-09-13T14:22:44.869Z,70.36
2017-09-13T14:23:54.825Z,70.93
2017-09-13T14:25:05.098Z,71.41
2017-09-13T14:26:15.375Z,71.12
2017-09-13T14:27:25.649Z,71.37
2017-09-13T14:28:35.599Z,71.47
2017-09-13T14:29:45.882Z,71.57
2017-09-13T14:30:55.511Z,72.05
2017-09-13T14:32:05.786Z,71.95
2017-09-13T14:33:15.735Z,72.01
2017-09-13T14:34:25.678Z,72.78
2017-09-13T14:35:35.629Z,71.92
2017-09-13T14:36:45.258Z,73.07
2017-09-13T14:37:55.528Z,73.16
2017-09-13T14:39:05.491Z,73.99
2017-09-13T14:40:15.767Z,73.22
2017-09-13T14:41:25.723Z,72.64
2017-09-13T14:42:35.357Z,72.94
2017-09-13T14:43:45.305Z,73.9
2017-09-13T14:44:54.941Z,73.99
2017-09-13T14:46:04.886Z,73.7
2017-09-13T14:47:14.835Z,74.27
2017-09-13T14:48:24.780Z,73.7
2017-09-13T14:49:34.739Z,73.66
2017-09-13T14:50:44.688Z,74.72
2017-09-13T14:51:54.316Z,74.72
2017-09-13T14:53:04.586Z,75.29
2017-09-13T14:54:14.860Z,74.72
2017-09-13T14:55:25.139Z,75.39
2017-09-13T14:56:35.084Z,75.2
2017-09-13T14:57:45.354Z,75.96
2017-09-13T14:58:55.298Z,76.35
2017-09-13T15:00:05.564Z,75.96
2017-09-13T15:01:15.514Z,76.73
2017-09-13T15:02:24.821Z,76.92
2017-09-13T15:03:35.087Z,76.73